Aviation Digital Data Service (ADDS)

Output produced by TAFs form (1828 UTC 24 November 2017)
found at http://www.aviationweather.gov/adds/tafs/
 
LFSB 241800Z 25004KT 220V290 8000 -RA FEW016 SCT026 BKN033 11/10 Q1015 NOSIG
TAF AMD LFSB 241742Z 2418/2518 VRB03KT 8000 -RA SCT020 BKN035 
     PROB40 
     TEMPO 2418/2421 4000 RA BKN013 
     BECMG 2504/2506 26010KT 
     PROB40 
     TEMPO 2506/2511 4000 RA BKN013 
     FM251100 27012KT 9999 SCT020 
     TEMPO 2511/2518 26017G30KT 4000 -SHRA SCT020TCU 
     PROB40 
     TEMPO 2511/2515 26022G40KT 2000 SHRA SCT020CB
       
LSZH 241820Z 14004KT 9999 FEW050 SCT110 BKN120 10/06 Q1015 NOSIG
TAF LSZH 241725Z 2418/2524 VRB03KT 9999 FEW050 BKN070 TX08/2510Z TN03/2518Z
     PROB30 
     TEMPO 2420/2503 RA 
     BECMG 2508/2510 26013KT 
     TEMPO 2509/2514 28015G30KT RA SCT020 BKN040 
     BECMG 2514/2516 25008KT 
     PROB40 
     TEMPO 2514/2524 SHRA SCT030TCU 
     PROB30 
     TEMPO 2520/2524 4500 TSGS SCT020CB BKN045
       
LSGG 241820Z 22011KT 9999 -RA FEW040 BKN050 13/06 Q1017 NOSIG
TAF LSGG 241725Z 2418/2524 22010KT 9999 -RA FEW035 BKN050 TX09/2503Z TN02/2518Z 
     TEMPO 2507/2514 4900 RA 
     PROB40 
     TEMPO 2517/2521 30010G20KT
       
LSZB 241820Z AUTO 10003KT 030V160 9999 BKN090 08/05 Q1016
TAF LSZB 241125Z 2412/2421 VRB03KT CAVOK 
     TEMPO 2414/2421 9999 SCT100
       
LSZA 241820Z VRB01KT 9999 OVC055 09/06 Q1021 NOSIG
TAF LSZA 241425Z 2415/2424 VRB03KT 9999 BKN060
       
LSZG 241820Z AUTO 24006KT 9999 -RA OVC042 11/07 Q1016
TAF LSZG 241425Z 2415/2424 25007KT 9999 SCT050 BKN070 
     BECMG 2421/2424 BKN013 
     PROB30 
     TEMPO 2421/2424 RA
       
LSZR 241820Z 12005KT CAVOK 10/05 Q1015 NOSIG RMK M
TAF LSZR 241425Z 2415/2424 08005KT CAVOK 
     TEMPO 2417/2424 9999 SCT070
       
LSGS 241820Z 05003KT 9999 OVC120 09/02 Q1017
TAF LSGS 241425Z 2415/2424 07005KT 9999 BKN100
       
LSGC 241820Z AUTO 24009KT 9999 -RA BKN011 07/06 Q1016
TAF LSGC 241425Z 2415/2424 22010KT 9999 BKN030 
     PROB40 
     TEMPO 2416/2424 4900 RA